createdAt,value
2018-03-02T00:00:00.469Z,25.23
2018-03-02T00:02:26.465Z,24.37
2018-03-02T00:04:52.455Z,22.47
2018-03-02T00:07:18.454Z,24.97
2018-03-02T00:09:45.226Z,26.20
2018-03-02T00:12:18.106Z,24.07
2018-03-02T00:14:44.833Z,23.27
2018-03-02T00:17:10.830Z,24.40
2018-03-02T00:19:36.837Z,23.20
2018-03-02T00:33:33.400Z,23.77
2018-03-02T00:35:59.353Z,25.77
2018-03-02T00:38:26.112Z,24.20
2018-03-02T00:40:52.832Z,22.67
2018-03-02T00:43:18.808Z,25.00
2018-03-02T00:45:44.771Z,23.07
2018-03-02T00:48:10.808Z,27.43
2018-03-02T00:50:36.720Z,24.50
2018-03-02T00:53:02.809Z,23.83
2018-03-02T00:55:28.796Z,24.40
2018-03-02T00:57:54.784Z,24.87
2018-03-02T01:00:20.807Z,24.90
2018-03-02T01:02:46.769Z,24.17
2018-03-02T01:05:12.750Z,24.73
2018-03-02T01:07:38.771Z,25.10
2018-03-02T01:10:04.780Z,24.90
2018-03-02T01:12:31.484Z,24.60
2018-03-02T01:14:57.475Z,25.60
2018-03-02T01:17:24.216Z,25.50
2018-03-02T01:19:50.154Z,25.23
2018-03-02T01:22:16.893Z,26.73
2018-03-02T01:24:42.852Z,25.60
2018-03-02T01:27:09.708Z,26.70
2018-03-02T01:29:36.516Z,16.00
2018-03-02T01:32:02.648Z,23.60
2018-03-02T01:34:28.693Z,24.27
2018-03-02T01:36:54.708Z,23.90
2018-03-02T01:39:20.668Z,25.43
2018-03-02T01:41:46.700Z,22.67
2018-03-02T01:44:12.736Z,25.77
2018-03-02T01:46:38.772Z,24.50
2018-03-02T01:49:04.872Z,25.00
2018-03-02T01:51:43.311Z,23.90
2018-03-02T01:54:09.292Z,23.10
2018-03-02T01:56:35.315Z,26.90
2018-03-02T01:59:01.365Z,25.30
2018-03-02T02:01:27.318Z,23.93
2018-03-02T02:03:54.108Z,25.93
2018-03-02T02:06:20.100Z,28.73
2018-03-02T02:08:47.642Z,24.57
2018-03-02T02:11:13.613Z,26.20
2018-03-02T02:13:39.589Z,23.83
2018-03-02T02:16:05.612Z,24.90
2018-03-02T02:18:31.672Z,24.23
2018-03-02T02:20:57.622Z,23.40
2018-03-02T02:23:23.616Z,26.20
2018-03-02T02:25:50.337Z,25.70
2018-03-02T02:28:17.088Z,24.20
2018-03-02T02:30:43.134Z,27.20
2018-03-02T02:33:09.125Z,25.17
2018-03-02T02:35:35.103Z,27.53
2018-03-02T02:38:01.111Z,28.80
2018-03-02T02:40:27.089Z,25.57
2018-03-02T02:42:53.862Z,25.53
2018-03-02T02:45:19.844Z,26.00
2018-03-02T02:47:45.831Z,25.57
2018-03-02T02:50:11.826Z,28.83
2018-03-02T02:52:37.817Z,27.27
2018-03-02T02:55:03.966Z,28.70
2018-03-02T02:57:29.999Z,26.50
2018-03-02T02:59:55.978Z,25.63
2018-03-02T03:02:22.000Z,25.50
2018-03-02T03:04:47.957Z,28.20
2018-03-02T03:07:13.918Z,29.20
2018-03-02T03:09:39.906Z,25.87
2018-03-02T03:12:05.869Z,30.43
2018-03-02T03:14:31.858Z,28.00
2018-03-02T03:16:57.814Z,29.70
2018-03-02T03:19:23.782Z,26.83
2018-03-02T03:21:50.585Z,27.20
2018-03-02T03:24:16.617Z,29.27
2018-03-02T03:26:42.578Z,26.50
2018-03-02T03:29:08.593Z,30.37
2018-03-02T03:31:34.550Z,30.83
2018-03-02T03:34:00.552Z,29.63
2018-03-02T03:36:26.556Z,29.63
2018-03-02T03:38:53.284Z,25.60
2018-03-02T03:41:19.237Z,29.83
2018-03-02T03:43:46.046Z,28.93
2018-03-02T03:46:12.101Z,31.03
2018-03-02T03:48:38.063Z,28.57
2018-03-02T03:51:04.822Z,26.90
2018-03-02T03:53:31.846Z,28.53
2018-03-02T03:55:57.832Z,31.73
2018-03-02T03:58:23.885Z,27.87
2018-03-02T04:00:49.872Z,30.40
2018-03-02T04:03:15.935Z,25.87
2018-03-02T04:05:41.908Z,28.30
2018-03-02T04:08:07.917Z,31.27
2018-03-02T04:10:34.701Z,30.83
2018-03-02T04:13:00.690Z,29.70
2018-03-02T04:15:27.432Z,28.00
2018-03-02T04:17:53.454Z,28.60
2018-03-02T04:20:19.470Z,32.10
2018-03-02T04:22:45.445Z,29.97
2018-03-02T04:25:12.222Z,27.73
2018-03-02T04:27:38.188Z,28.53
2018-03-02T04:30:04.321Z,30.10
2018-03-02T04:32:30.348Z,29.57
2018-03-02T04:34:56.336Z,29.17
2018-03-02T04:37:23.061Z,29.97
2018-03-02T04:39:49.097Z,29.27
2018-03-02T04:42:15.085Z,31.40
2018-03-02T04:44:41.825Z,30.83
2018-03-02T04:47:07.828Z,30.80
2018-03-02T04:49:33.857Z,29.80
2018-03-02T04:52:00.078Z,30.00
2018-03-02T04:54:26.086Z,29.83
2018-03-02T04:56:52.810Z,30.33
2018-03-02T04:59:18.762Z,30.90
2018-03-02T05:01:45.524Z,29.00
2018-03-02T05:04:12.238Z,29.13
2018-03-02T05:06:38.262Z,29.03
2018-03-02T05:09:04.266Z,31.90
2018-03-02T05:11:30.394Z,29.97
2018-03-02T05:13:56.369Z,30.67
2018-03-02T05:16:22.377Z,30.03
2018-03-02T05:18:48.423Z,28.97
2018-03-02T05:21:14.499Z,28.00
2018-03-02T05:23:40.453Z,30.67
2018-03-02T05:26:07.541Z,28.47
2018-03-02T05:28:33.742Z,30.03
2018-03-02T05:31:00.610Z,29.73
2018-03-02T05:33:26.581Z,30.60
2018-03-02T05:35:52.607Z,31.97
2018-03-02T05:38:18.613Z,31.80
2018-03-02T05:40:44.681Z,35.43
2018-03-02T05:43:11.480Z,31.57
2018-03-02T05:45:37.524Z,32.60
2018-03-02T05:48:03.669Z,32.13
2018-03-02T05:50:29.735Z,31.50
2018-03-02T05:52:56.582Z,32.60
2018-03-02T05:55:22.585Z,28.70
2018-03-02T05:57:48.553Z,29.80
2018-03-02T06:00:15.313Z,28.27
2018-03-02T06:02:42.089Z,31.37
2018-03-02T06:05:08.142Z,31.37
2018-03-02T06:07:34.520Z,31.80
2018-03-02T06:10:00.600Z,31.70
2018-03-02T06:12:27.446Z,35.60
2018-03-02T06:14:53.449Z,32.03
2018-03-02T06:17:19.439Z,32.17
2018-03-02T06:19:45.413Z,32.53
2018-03-02T06:22:12.191Z,31.50
2018-03-02T06:24:39.862Z,32.33
2018-03-02T06:27:05.861Z,30.50
2018-03-02T06:29:32.634Z,33.27
2018-03-02T06:31:58.619Z,30.23
2018-03-02T06:34:24.652Z,33.70
2018-03-02T06:36:50.613Z,32.50
2018-03-02T06:39:17.385Z,30.87
2018-03-02T06:41:43.360Z,29.50
2018-03-02T06:44:09.364Z,32.90
2018-03-02T06:46:36.229Z,30.27
2018-03-02T06:49:02.303Z,33.50
2018-03-02T06:51:28.287Z,33.47
2018-03-02T06:53:55.012Z,31.77
2018-03-02T06:56:21.007Z,32.97
2018-03-02T06:58:46.964Z,31.63
2018-03-02T07:01:12.917Z,31.67
2018-03-02T07:03:38.874Z,34.23
2018-03-02T07:06:05.626Z,34.37
2018-03-02T07:08:32.363Z,33.90
2018-03-02T07:10:58.342Z,33.03
2018-03-02T07:13:24.357Z,36.27
2018-03-02T07:15:51.057Z,34.60
2018-03-02T07:18:17.017Z,33.20
2018-03-02T07:20:43.038Z,34.77
2018-03-02T07:23:08.997Z,33.10
2018-03-02T07:25:34.977Z,33.13
2018-03-02T07:28:00.981Z,33.57
2018-03-02T07:30:27.144Z,32.53
2018-03-02T07:32:53.109Z,35.90
2018-03-02T07:35:19.119Z,32.17
2018-03-02T07:37:45.164Z,33.40
2018-03-02T07:40:11.224Z,34.40
2018-03-02T07:42:37.221Z,35.20
2018-03-02T07:45:03.917Z,32.70
2018-03-02T07:47:29.910Z,32.10
2018-03-02T07:49:56.637Z,33.07
2018-03-02T07:52:22.630Z,31.77
2018-03-02T07:54:48.570Z,34.20
2018-03-02T07:57:14.555Z,33.03
2018-03-02T07:59:41.286Z,56.40
2018-03-02T08:02:07.289Z,41.43
2018-03-02T08:04:33.329Z,40.10
2018-03-02T08:06:59.325Z,34.37
2018-03-02T08:09:26.097Z,46.10
2018-03-02T08:11:52.169Z,34.90
2018-03-02T08:14:18.210Z,32.90
2018-03-02T08:16:44.214Z,33.97
2018-03-02T08:19:10.213Z,39.00
2018-03-02T08:21:36.971Z,40.00
2018-03-02T08:24:02.937Z,34.80
2018-03-02T08:26:28.919Z,37.70
2018-03-02T08:28:54.916Z,39.87
2018-03-02T08:31:20.882Z,44.10
2018-03-02T08:33:46.905Z,42.83
2018-03-02T08:36:12.861Z,41.80
2018-03-02T08:38:38.847Z,36.23
2018-03-02T08:41:05.551Z,35.03
2018-03-02T08:43:31.579Z,35.53
2018-03-02T08:45:57.561Z,34.77
2018-03-02T08:48:24.256Z,31.50
2018-03-02T08:50:50.282Z,34.13
2018-03-02T08:53:16.305Z,35.80
2018-03-02T08:55:42.304Z,34.03
2018-03-02T08:58:08.262Z,37.97
2018-03-02T09:00:34.996Z,49.53
2018-03-02T09:03:01.003Z,41.63
2018-03-02T09:05:26.977Z,34.60
2018-03-02T09:07:52.961Z,34.90
2018-03-02T09:10:18.921Z,34.77
2018-03-02T09:12:44.874Z,37.20
2018-03-02T09:15:10.874Z,36.10
2018-03-02T09:17:36.824Z,38.80
2018-03-02T09:20:03.050Z,36.87
2018-03-02T09:22:29.069Z,35.27
2018-03-02T09:24:55.234Z,32.90
2018-03-02T09:27:21.217Z,34.63
2018-03-02T09:29:47.957Z,35.00
2018-03-02T09:32:13.958Z,34.17
2018-03-02T09:34:39.954Z,33.90
2018-03-02T09:37:06.666Z,32.83
2018-03-02T09:39:32.767Z,35.33
2018-03-02T09:41:59.019Z,30.77
2018-03-02T09:44:25.000Z,31.10
2018-03-02T09:46:50.961Z,34.60
2018-03-02T09:49:17.697Z,35.40
2018-03-02T09:51:43.642Z,36.20
2018-03-02T09:54:10.407Z,32.80
2018-03-02T09:56:37.151Z,32.70
2018-03-02T09:59:03.944Z,34.43
2018-03-02T10:01:29.934Z,29.50
2018-03-02T10:03:55.891Z,32.43
2018-03-02T10:06:22.723Z,30.67
2018-03-02T10:08:48.665Z,29.40
2018-03-02T10:11:15.378Z,29.73
2018-03-02T10:13:41.361Z,33.27
2018-03-02T10:16:08.266Z,28.40
2018-03-02T10:18:34.272Z,31.63
2018-03-02T10:21:00.245Z,32.00
2018-03-02T10:23:26.206Z,33.80
2018-03-02T10:25:52.229Z,34.20
2018-03-02T10:28:18.173Z,34.77
2018-03-02T10:30:44.914Z,31.10
2018-03-02T10:33:10.916Z,31.97
2018-03-02T10:35:36.944Z,31.47
2018-03-02T10:38:02.968Z,36.93
2018-03-02T10:40:29.782Z,42.25
2018-03-02T10:42:55.829Z,35.90
2018-03-02T10:45:21.850Z,39.33
2018-03-02T10:47:47.939Z,36.57
2018-03-02T10:50:13.921Z,36.73
2018-03-02T10:52:39.921Z,35.33
2018-03-02T10:55:05.876Z,37.63
2018-03-02T10:57:31.873Z,34.87
2018-03-02T10:59:58.668Z,37.73
2018-03-02T11:02:24.725Z,38.90
2018-03-02T11:04:58.643Z,38.10
2018-03-02T11:07:24.740Z,37.03
2018-03-02T11:09:51.470Z,40.50
2018-03-02T11:12:17.576Z,38.30
2018-03-02T11:14:43.544Z,39.60
2018-03-02T11:17:10.387Z,39.13
2018-03-02T11:19:36.405Z,40.10
2018-03-02T11:22:02.382Z,43.40
2018-03-02T11:24:29.157Z,40.83
2018-03-02T11:26:55.153Z,41.07
2018-03-02T11:29:21.170Z,44.90
2018-03-02T11:31:47.148Z,43.47
2018-03-02T11:34:13.851Z,44.43
2018-03-02T11:36:39.831Z,46.83
2018-03-02T11:39:06.625Z,39.70
2018-03-02T11:41:32.661Z,41.20
2018-03-02T11:43:58.756Z,38.87
2018-03-02T11:46:25.533Z,41.80
2018-03-02T11:48:52.237Z,43.33
2018-03-02T11:51:18.192Z,42.50
2018-03-02T11:53:44.189Z,45.40
2018-03-02T11:56:10.159Z,43.17
2018-03-02T11:58:36.161Z,41.60
2018-03-02T12:01:02.198Z,42.47
2018-03-02T12:03:28.454Z,41.13
2018-03-02T12:05:54.534Z,41.30
2018-03-02T12:08:21.294Z,41.57
2018-03-02T12:10:47.981Z,42.23
2018-03-02T12:13:13.989Z,41.90
2018-03-02T12:15:39.973Z,41.00
2018-03-02T12:18:05.925Z,41.63
2018-03-02T12:20:31.934Z,42.20
2018-03-02T12:22:57.918Z,42.67
2018-03-02T12:25:23.884Z,42.63
2018-03-02T12:27:49.926Z,44.37
2018-03-02T12:30:16.099Z,42.90
2018-03-02T12:32:42.177Z,44.07
2018-03-02T12:35:08.874Z,43.70
2018-03-02T12:37:35.629Z,45.07
2018-03-02T12:40:01.607Z,40.00
2018-03-02T12:42:27.717Z,42.87
2018-03-02T12:44:53.725Z,54.80
2018-03-02T12:47:19.684Z,55.07
2018-03-02T12:49:45.724Z,61.37
2018-03-02T12:52:11.714Z,54.03
2018-03-02T12:54:38.427Z,49.70
2018-03-02T12:57:04.370Z,48.73
2018-03-02T12:59:31.836Z,44.57
2018-03-02T13:01:57.892Z,44.20
2018-03-02T13:04:24.664Z,42.87
2018-03-02T13:06:50.650Z,69.20
2018-03-02T13:09:16.629Z,45.13
2018-03-02T13:11:43.338Z,42.17
2018-03-02T13:14:09.326Z,44.30
2018-03-02T13:16:36.023Z,48.23
2018-03-02T13:19:02.020Z,50.20
2018-03-02T13:21:28.042Z,42.80
2018-03-02T13:23:54.178Z,46.40
2018-03-02T13:26:32.639Z,47.50
2018-03-02T13:28:58.595Z,44.70
2018-03-02T13:31:24.585Z,47.27
2018-03-02T13:34:03.828Z,46.70
2018-03-02T13:36:30.677Z,43.00
2018-03-02T13:38:57.488Z,38.50
2018-03-02T13:41:35.917Z,43.50
2018-03-02T13:44:01.906Z,45.80
2018-03-02T13:46:28.657Z,44.27
2018-03-02T13:49:07.909Z,42.17
2018-03-02T13:51:34.648Z,41.77
2018-03-02T13:54:00.678Z,44.70
2018-03-02T13:56:49.781Z,41.83
2018-03-02T13:59:16.476Z,41.30
2018-03-02T14:01:42.465Z,43.10
2018-03-02T14:04:21.029Z,44.70
2018-03-02T14:06:47.039Z,42.77
2018-03-02T14:09:12.986Z,44.67
2018-03-02T14:11:39.677Z,40.03
2018-03-02T14:14:05.650Z,38.90
2018-03-02T14:16:31.654Z,45.47
2018-03-02T14:18:57.642Z,43.70
2018-03-02T14:21:24.334Z,43.53
2018-03-02T14:23:50.339Z,40.60
2018-03-02T14:26:17.070Z,40.03
2018-03-02T14:28:43.012Z,42.23
2018-03-02T14:31:09.908Z,44.33
2018-03-02T14:33:36.051Z,40.50
2018-03-02T14:36:01.997Z,40.97
2018-03-02T14:38:28.004Z,40.90
2018-03-02T14:40:54.003Z,40.73
2018-03-02T14:43:19.977Z,43.40
2018-03-02T14:45:45.944Z,41.30
2018-03-02T14:48:11.927Z,40.70
2018-03-02T14:50:38.642Z,40.97
2018-03-02T14:53:04.692Z,43.53
2018-03-02T14:55:30.781Z,43.63
2018-03-02T14:57:56.768Z,49.57
2018-03-02T15:00:22.741Z,41.93
2018-03-02T15:02:49.426Z,41.33
2018-03-02T15:05:15.556Z,41.60
2018-03-02T15:07:41.589Z,41.47
2018-03-02T15:10:07.557Z,41.57
2018-03-02T15:12:33.930Z,43.63
2018-03-02T15:15:00.710Z,43.13
2018-03-02T15:17:26.674Z,46.60
2018-03-02T15:19:52.664Z,37.80
2018-03-02T15:22:19.587Z,42.03
2018-03-02T15:24:45.554Z,38.87
2018-03-02T15:27:12.273Z,41.73
2018-03-02T15:29:38.213Z,42.80
2018-03-02T15:32:04.190Z,42.30
2018-03-02T15:34:30.962Z,43.13
2018-03-02T15:36:56.921Z,48.90
2018-03-02T15:39:23.138Z,43.20
2018-03-02T15:41:49.141Z,42.37
2018-03-02T15:44:15.091Z,38.47
2018-03-02T15:46:41.896Z,41.00
2018-03-02T15:49:07.857Z,42.10
2018-03-02T15:51:33.845Z,40.77
2018-03-02T15:53:59.869Z,39.70
2018-03-02T15:56:25.886Z,41.40
2018-03-02T15:58:52.630Z,41.87
2018-03-02T16:01:18.579Z,43.73
2018-03-02T16:03:45.307Z,43.57
2018-03-02T16:06:11.333Z,44.20
2018-03-02T16:08:37.354Z,44.93
2018-03-02T16:11:03.305Z,42.20
2018-03-02T16:13:29.377Z,40.73
2018-03-02T16:15:55.327Z,37.87
2018-03-02T16:18:21.321Z,39.63
2018-03-02T16:20:47.268Z,36.07
2018-03-02T16:23:13.370Z,41.47
2018-03-02T16:25:39.366Z,40.57
2018-03-02T16:28:05.330Z,38.30
2018-03-02T16:30:31.413Z,37.07
2018-03-02T16:32:57.475Z,37.10
2018-03-02T16:35:23.433Z,34.77
2018-03-02T16:37:50.169Z,33.90
2018-03-02T16:40:16.169Z,34.77
2018-03-02T16:42:42.161Z,37.20
2018-03-02T16:45:08.899Z,35.50
2018-03-02T16:47:34.884Z,36.27
2018-03-02T16:50:00.853Z,35.47
2018-03-02T16:52:26.860Z,36.67
2018-03-02T16:54:52.810Z,36.53
2018-03-02T16:57:18.830Z,34.00
2018-03-02T16:59:44.830Z,31.27
2018-03-02T17:02:11.541Z,33.53
2018-03-02T17:04:37.505Z,34.30
2018-03-02T17:07:03.594Z,34.80
2018-03-02T17:09:29.558Z,35.17
2018-03-02T17:11:55.523Z,36.03
2018-03-02T17:14:22.258Z,34.93
2018-03-02T17:16:48.198Z,34.67
2018-03-02T17:19:14.182Z,36.70
2018-03-02T17:21:40.157Z,33.60
2018-03-02T17:24:06.105Z,34.73
2018-03-02T17:26:32.092Z,30.70
2018-03-02T17:28:58.084Z,32.97
2018-03-02T17:31:24.032Z,33.17
2018-03-02T17:33:50.809Z,34.07
2018-03-02T17:36:16.790Z,33.53
2018-03-02T17:38:42.781Z,33.20
2018-03-02T17:41:08.722Z,32.77
2018-03-02T17:43:34.702Z,35.47
2018-03-02T17:46:00.732Z,34.37
2018-03-02T17:48:26.721Z,32.30
2018-03-02T17:50:52.669Z,31.80
2018-03-02T17:53:18.613Z,33.00
2018-03-02T17:55:44.593Z,32.30
2018-03-02T17:58:10.553Z,31.60
2018-03-02T18:00:37.278Z,33.43
2018-03-02T18:03:03.264Z,32.70
2018-03-02T18:05:29.225Z,33.43
2018-03-02T18:07:55.218Z,31.93
2018-03-02T18:10:21.946Z,31.40
2018-03-02T18:12:47.965Z,32.20
2018-03-02T18:15:13.951Z,33.63
2018-03-02T18:17:39.934Z,35.27
2018-03-02T18:20:05.881Z,33.00
2018-03-02T18:22:31.865Z,30.67
2018-03-02T18:24:57.874Z,30.10
2018-03-02T18:27:24.623Z,30.77
2018-03-02T18:29:50.561Z,32.63
2018-03-02T18:32:16.525Z,30.73
2018-03-02T18:34:42.551Z,35.27
2018-03-02T18:37:09.255Z,33.20
2018-03-02T18:39:35.228Z,29.70
2018-03-02T18:42:01.975Z,29.73
2018-03-02T18:44:27.998Z,29.80
2018-03-02T18:46:53.966Z,30.07
2018-03-02T18:49:20.704Z,30.93
2018-03-02T18:51:46.645Z,34.30
2018-03-02T18:54:13.347Z,32.00
2018-03-02T18:56:39.333Z,31.23
2018-03-02T18:59:06.022Z,31.70
2018-03-02T19:01:32.030Z,30.80
2018-03-02T19:03:58.778Z,30.00
2018-03-02T19:06:25.525Z,29.70
2018-03-02T19:08:51.522Z,30.23
2018-03-02T19:11:17.521Z,29.50
2018-03-02T19:13:43.613Z,26.23
2018-03-02T19:16:09.658Z,27.83
2018-03-02T19:18:35.645Z,29.77
2018-03-02T19:21:01.667Z,26.43
2018-03-02T19:23:28.401Z,26.33
2018-03-02T19:25:55.136Z,26.80
2018-03-02T19:28:21.076Z,25.87
2018-03-02T19:30:47.051Z,25.10
2018-03-02T19:33:13.037Z,26.00
2018-03-02T19:35:38.981Z,28.17
2018-03-02T19:38:04.953Z,27.77
2018-03-02T19:40:30.938Z,26.67
2018-03-02T19:42:56.929Z,25.17
2018-03-02T19:45:22.905Z,24.53
2018-03-02T19:47:48.873Z,27.00
2018-03-02T19:50:14.914Z,26.93
2018-03-02T19:52:41.600Z,26.27
2018-03-02T19:55:07.558Z,27.27
2018-03-02T19:57:33.549Z,25.60
2018-03-02T20:00:00.251Z,24.10
2018-03-02T20:02:26.232Z,26.30
2018-03-02T20:04:52.961Z,26.37
2018-03-02T20:07:18.966Z,25.60
2018-03-02T20:09:44.965Z,26.27
2018-03-02T20:12:11.751Z,25.63
2018-03-02T20:14:37.707Z,24.63
2018-03-02T20:17:03.712Z,26.60
2018-03-02T20:19:29.783Z,25.30
2018-03-02T20:21:56.478Z,28.03
2018-03-02T20:24:23.481Z,27.03
2018-03-02T20:26:49.484Z,24.40
2018-03-02T20:29:16.245Z,25.27
2018-03-02T20:31:42.913Z,22.60
2018-03-02T20:34:09.000Z,24.73
2018-03-02T20:36:34.976Z,25.00
2018-03-02T20:39:01.035Z,26.17
2018-03-02T20:41:27.098Z,25.40
2018-03-02T20:43:53.067Z,26.40
2018-03-02T20:46:19.813Z,26.80
2018-03-02T20:48:46.533Z,25.90
2018-03-02T20:51:12.544Z,23.37
2018-03-02T20:53:38.532Z,25.03
2018-03-02T20:56:04.520Z,26.33
2018-03-02T20:58:30.562Z,25.10
2018-03-02T21:00:56.525Z,25.13
2018-03-02T21:03:22.552Z,26.60
2018-03-02T21:05:48.546Z,26.77
2018-03-02T21:08:14.501Z,24.70
2018-03-02T21:10:40.453Z,27.57
2018-03-02T21:13:06.467Z,24.67
2018-03-02T21:15:32.510Z,24.27
2018-03-02T21:17:58.550Z,24.20
2018-03-02T21:20:24.540Z,21.30
2018-03-02T21:22:51.314Z,21.67
2018-03-02T21:25:17.253Z,22.67
2018-03-02T21:27:43.248Z,24.57
2018-03-02T21:30:09.234Z,24.87
2018-03-02T21:32:35.201Z,21.63
2018-03-02T21:35:01.248Z,23.27
2018-03-02T21:37:27.315Z,23.57
2018-03-02T21:39:54.025Z,24.10
2018-03-02T21:42:20.019Z,22.00
2018-03-02T21:44:45.974Z,24.93
2018-03-02T21:47:12.011Z,24.27
2018-03-02T21:49:37.971Z,22.27
2018-03-02T21:52:03.969Z,23.63
2018-03-02T21:54:29.970Z,23.10
2018-03-02T21:56:55.970Z,23.60
2018-03-02T21:59:21.938Z,20.53
2018-03-02T22:01:47.885Z,23.03
2018-03-02T22:04:13.876Z,22.70
2018-03-02T22:06:39.865Z,26.37
2018-03-02T22:09:05.841Z,21.87
2018-03-02T22:11:31.813Z,22.90
2018-03-02T22:13:57.845Z,22.37
2018-03-02T22:16:23.828Z,22.43
2018-03-02T22:18:49.790Z,22.77
2018-03-02T22:21:15.813Z,22.83
2018-03-02T22:23:41.771Z,24.83
2018-03-02T22:26:07.881Z,24.73
2018-03-02T22:28:33.866Z,23.20
2018-03-02T22:30:59.854Z,24.10
2018-03-02T22:33:25.874Z,23.40
2018-03-02T22:35:52.573Z,23.50
2018-03-02T22:38:18.571Z,23.43
2018-03-02T22:40:44.565Z,23.13
2018-03-02T22:43:10.529Z,23.90
2018-03-02T22:45:37.257Z,24.30
2018-03-02T22:48:03.958Z,21.43
2018-03-02T22:50:29.974Z,20.93
2018-03-02T22:52:55.950Z,23.77
2018-03-02T22:55:21.948Z,23.83
2018-03-02T22:57:48.641Z,22.33
2018-03-02T23:00:14.629Z,21.90
2018-03-02T23:02:41.362Z,24.53
2018-03-02T23:05:07.337Z,21.03
2018-03-02T23:07:33.377Z,25.80
2018-03-02T23:09:59.393Z,20.50
2018-03-02T23:12:26.126Z,23.07
2018-03-02T23:14:52.073Z,23.30
2018-03-02T23:17:18.777Z,22.60
2018-03-02T23:19:44.788Z,21.67
2018-03-02T23:22:10.754Z,31.63
2018-03-02T23:24:36.737Z,41.90
2018-03-02T23:27:03.541Z,37.43
2018-03-02T23:29:29.629Z,34.10
2018-03-02T23:31:56.324Z,28.83
2018-03-02T23:34:22.301Z,40.27
2018-03-02T23:36:48.249Z,39.00
2018-03-02T23:39:15.038Z,45.10
2018-03-02T23:41:40.990Z,55.20
2018-03-02T23:44:06.933Z,34.20
2018-03-02T23:46:32.962Z,39.77
2018-03-02T23:48:58.969Z,46.00
2018-03-02T23:51:24.957Z,45.53
2018-03-02T23:53:50.934Z,39.17
2018-03-02T23:56:16.962Z,31.70
2018-03-02T23:58:43.657Z,26.50
